Kezdőlap
METAR-TAF:

METAR-TAF

Repülőterek :

Kirksville Regional Airport

Kirksville, Missouri, Amerikai Egyesült Államok

földrajzi szélesség: 40-05-50N, földrajzi hosszúság: 092-32-36W, magasság: 294 m

Jelenlegi meteorológiai megfigyelések

A jelentés 25 perccel ezelõtt készült, 14:26 UTC
Délkeleti szél 15 kt széllökések: 25 kt
Hőmérséklet 19°C
Páratartalom 88%
Légköri nyomás 1004 hPa
Látótávolság: 16.1 km
Szakadozott felhőzet 2600 lábon
Borult 3200 lábon

METAR: KIRK 161426Z AUTO 13015G25KT 10SM BKN026 OVC032 19/17 A2966 RMK AO2 T01890167

Idő: 09:51 (14:51 UTC)


TAF: hiányzik

Meteorológiai megfigyelések és előrejelzések több, mint 4000 repülőtéren (METAR és TAF jelentéseket).

A térképen piros és sárga pontok jelzik az elérhető meteorológiai állomásokat.

Mozgassa az egeret a pont fölött, hogy megjelenjen az állomás neve.

Azután kattintson az időjárási megfigyelések és előrejelzések megtekintéséhez.

A térkép megváltoztatása: kattintson a fekete keresztel jelölt zöld gombra ráközelítéshez, a vonallal jelölt zöld gombra távolításhoz, vagy a zöld nyilakra a szomszédos térképek eléréséhez.


METAR-TAF: